WXM80 ListenWXM80 Stop

You find our weather info also at:

UK Metoffice

WeatherCloud

Weather Underground

Northeastern Weather Network

AWEKAS

Citizen Weather Observer Program (CWOP)

HAMweather, WeatherForYou, PWS Weather


Weather Underground History page Text

Daily Summary for May 25, 2017 Units:  English    Metric   Both
« Previous Day
Next Day »
Daily Weekly Monthly Yearly Custom
  High: Low: Average:
Temperature: 57.5 °F 55.7 °F 56.5 °F
Dew Point: 56.8 °F 52.8 °F 55.2 °F
Humidity: 98 % 85 % 95 %
Wind Speed: 6.5 mph 0.0 mph 2.9 mph
Wind Gust: 12.7 mph - -
Wind:- - East
Pressure: 29.79 in 29.46 in -
Precipitation: 0.48 in    
Historical Graphs
 
 
Tabular Data for May 25, 2017
Time Temperature Dew Point Pressure Wind Wind Speed Wind Gust Humidity Rainfall Rate (Hourly)
00:03 57.4 °F 52.9 °F 29.79 in ENE 1.2 mph 3.5 mph 85 % 0.00 in
00:08 57.4 °F 52.9 °F 29.79 in ENE 1.0 mph 1.2 mph 85 % 0.00 in
00:13 57.4 °F 52.9 °F 29.79 in East 0.1 mph 1.2 mph 85 % 0.00 in
00:18 57.3 °F 53.1 °F 29.79 in SE 0.2 mph 1.2 mph 86 % 0.00 in
00:23 57.3 °F 53.1 °F 29.79 in SE 0.4 mph 1.2 mph 86 % 0.00 in
00:28 57.3 °F 53.1 °F 29.79 in SE 0.9 mph 2.3 mph 86 % 0.00 in
00:33 57.3 °F 53.1 °F 29.79 in SE 0.3 mph 2.3 mph 86 % 0.00 in
00:38 57.3 °F 52.8 °F 29.79 in SE 0.2 mph 1.2 mph 85 % 0.00 in
00:43 57.2 °F 53.0 °F 29.79 in SE 0.6 mph 2.3 mph 86 % 0.00 in
00:48 57.2 °F 53.0 °F 29.78 in SE 0.4 mph 1.2 mph 86 % 0.00 in
00:53 57.1 °F 53.0 °F 29.78 in SE 0.5 mph 1.2 mph 86 % 0.00 in
00:58 57.1 °F 53.3 °F 29.78 in SE 0.8 mph 2.3 mph 87 % 0.00 in
01:03 57.1 °F 53.3 °F 29.78 in ESE 0.8 mph 2.3 mph 87 % 0.00 in
01:08 57.0 °F 53.2 °F 29.78 in East 0.4 mph 1.2 mph 87 % 0.00 in
01:13 57.0 °F 53.2 °F 29.78 in East 0.5 mph 2.3 mph 87 % 0.00 in
01:18 57.0 °F 53.2 °F 29.78 in East 0.6 mph 2.3 mph 87 % 0.00 in
01:23 56.9 °F 53.4 °F 29.77 in East 1.1 mph 2.3 mph 88 % 0.00 in
01:28 56.9 °F 53.4 °F 29.77 in East 0.9 mph 2.3 mph 88 % 0.00 in
01:33 56.9 °F 53.4 °F 29.77 in East 0.1 mph 1.2 mph 88 % 0.00 in
01:38 57.0 °F 53.5 °F 29.77 in East 0.2 mph 1.2 mph 88 % 0.00 in
01:43 56.9 °F 53.4 °F 29.77 in East 0.6 mph 1.2 mph 88 % 0.00 in
01:48 56.9 °F 53.4 °F 29.77 in East 0.2 mph 1.2 mph 88 % 0.00 in
01:53 57.0 °F 53.5 °F 29.77 in East 0.1 mph   88 % 0.00 in
01:58 57.0 °F 53.5 °F 29.77 in Calm   1.2 mph 88 % 0.00 in
02:03 57.0 °F 53.5 °F 29.76 in East 0.4 mph 2.3 mph 88 % 0.00 in
02:08 57.0 °F 53.5 °F 29.76 in East 0.3 mph 1.2 mph 88 % 0.00 in
02:13 57.0 °F 53.5 °F 29.76 in East 0.2 mph 1.2 mph 88 % 0.00 in
02:18 57.1 °F 53.6 °F 29.76 in East 0.2 mph 1.2 mph 88 % 0.00 in
02:23 57.0 °F 53.5 °F 29.76 in East 0.8 mph 2.3 mph 88 % 0.00 in
02:28 57.1 °F 53.6 °F 29.75 in East 1.1 mph 2.0 mph 88 % 0.00 in
02:33 57.1 °F 53.6 °F 29.75 in East 0.3 mph 1.2 mph 88 % 0.00 in
02:38 57.1 °F 53.6 °F 29.75 in East 1.0 mph 3.5 mph 88 % 0.00 in
02:43 57.2 °F 53.7 °F 29.75 in East 0.9 mph 2.3 mph 88 % 0.00 in
02:48 57.2 °F 53.7 °F 29.74 in East 1.3 mph 3.5 mph 88 % 0.00 in
02:54 57.3 °F 53.8 °F 29.74 in East 1.2 mph 2.3 mph 88 % 0.00 in
02:59 57.3 °F 53.8 °F 29.75 in East 0.5 mph 2.3 mph 88 % 0.00 in
03:04 57.3 °F 54.1 °F 29.74 in ESE 2.2 mph 3.5 mph 89 % 0.00 in
03:09 57.4 °F 54.2 °F 29.74 in ESE 1.1 mph 2.3 mph 89 % 0.00 in
03:14 57.4 °F 54.2 °F 29.74 in East 1.6 mph 2.3 mph 89 % 0.00 in
03:19 57.5 °F 54.3 °F 29.74 in East 1.2 mph 2.3 mph 89 % 0.00 in
03:24 57.5 °F 54.3 °F 29.74 in ESE 0.7 mph 3.5 mph 89 % 0.00 in
03:29 57.5 °F 54.3 °F 29.74 in East 1.0 mph 2.3 mph 89 % 0.00 in
03:34 57.5 °F 54.3 °F 29.74 in East 0.9 mph 2.3 mph 89 % 0.00 in
03:39 57.5 °F 54.3 °F 29.74 in ESE 2.2 mph 4.6 mph 89 % 0.00 in
03:44 57.5 °F 54.3 °F 29.74 in ESE 2.0 mph 3.5 mph 89 % 0.00 in
03:49 57.5 °F 54.3 °F 29.73 in ENE 1.4 mph 3.5 mph 89 % 0.00 in
03:54 57.5 °F 54.3 °F 29.73 in East 1.3 mph 2.3 mph 89 % 0.00 in
03:59 57.4 °F 54.2 °F 29.73 in ESE 1.9 mph 4.6 mph 89 % 0.00 in
04:04 57.4 °F 54.2 °F 29.73 in East 1.6 mph 2.3 mph 89 % 0.00 in
04:09 57.4 °F 54.2 °F 29.73 in East 1.4 mph 2.3 mph 89 % 0.00 in
04:15 57.4 °F 54.5 °F 29.72 in ENE 1.0 mph 3.0 mph 90 % 0.00 in
04:20 57.4 °F 54.5 °F 29.72 in ENE 2.1 mph 3.5 mph 90 % 0.00 in
04:25 57.3 °F 54.4 °F 29.72 in ENE 1.9 mph 3.0 mph 90 % 0.00 in
04:30 57.2 °F 54.6 °F 29.72 in ENE 2.4 mph 3.5 mph 91 % 0.00 in
04:35 57.1 °F 54.2 °F 29.72 in ENE 2.2 mph 3.5 mph 90 % 0.00 in
04:40 57.0 °F 54.4 °F 29.72 in ENE 2.5 mph 3.5 mph 91 % 0.00 in
04:45 57.0 °F 54.4 °F 29.72 in ENE 2.5 mph 4.0 mph 91 % 0.00 in
04:50 56.9 °F 54.3 °F 29.72 in ENE 3.4 mph 5.8 mph 91 % 0.00 in
04:55 56.8 °F 54.5 °F 29.71 in ENE 3.4 mph 4.6 mph 92 % 0.00 in
05:00 56.7 °F 54.4 °F 29.72 in ENE 2.3 mph 4.0 mph 92 % 0.00 in
05:05 56.6 °F 54.3 °F 29.72 in ENE 2.9 mph 4.0 mph 92 % 0.01 in
05:10 56.5 °F 54.5 °F 29.71 in ENE 2.4 mph 4.0 mph 93 % 0.01 in
05:15 56.4 °F 54.4 °F 29.72 in ENE 2.6 mph 3.5 mph 93 % 0.01 in
05:21 56.3 °F 54.3 °F 29.72 in East 2.2 mph 3.5 mph 93 % 0.01 in
05:26 56.3 °F 54.3 °F 29.72 in East 2.0 mph 3.5 mph 93 % 0.01 in
05:31 56.3 °F 54.6 °F 29.72 in East 2.2 mph 3.5 mph 94 % 0.01 in
05:36 56.3 °F 54.6 °F 29.72 in East 2.2 mph 4.6 mph 94 % 0.01 in
05:40 56.3 °F 54.6 °F 29.72 in East 2.5 mph 4.6 mph 94 % 0.01 in
05:51 56.1 °F 54.4 °F 29.72 in ENE 2.0 mph 5.0 mph 94 % 0.00 in
05:56 56.0 °F 54.3 °F 29.72 in ENE 3.0 mph 5.0 mph 94 % 0.00 in
06:01 56.0 °F 54.3 °F 29.71 in East 2.2 mph 3.5 mph 94 % 0.02 in
06:06 56.0 °F 54.6 °F 29.71 in ENE 2.0 mph 5.0 mph 95 % 0.00 in
06:11 55.9 °F 54.5 °F 29.70 in ENE 3.0 mph 6.0 mph 95 % 0.00 in
06:16 55.9 °F 54.5 °F 29.70 in ENE 5.0 mph 12.0 mph 95 % 0.00 in
06:21 55.8 °F 54.4 °F 29.70 in ENE 3.0 mph 8.0 mph 95 % 0.00 in
06:26 55.9 °F 54.5 °F 29.70 in East 3.5 mph 5.0 mph 95 % 0.02 in
06:30 55.8 °F 54.4 °F 29.70 in ENE 4.4 mph 7.0 mph 95 % 0.02 in
06:35 55.9 °F 54.5 °F 29.69 in East 4.2 mph 5.8 mph 95 % 0.02 in
06:40 55.8 °F 54.4 °F 29.69 in East 5.0 mph 5.8 mph 95 % 0.02 in
06:45 55.8 °F 54.4 °F 29.69 in East 4.4 mph 6.0 mph 95 % 0.01 in
06:51 55.9 °F 54.5 °F 29.69 in East 2.8 mph 5.0 mph 95 % 0.01 in
06:56 55.8 °F 54.4 °F 29.69 in ENE 3.0 mph 5.0 mph 95 % 0.00 in
07:01 55.9 °F 54.8 °F 29.69 in ENE 3.4 mph 5.8 mph 96 % 0.01 in
07:05 55.9 °F 54.8 °F 29.69 in ENE 3.1 mph 4.6 mph 96 % 0.02 in
07:10 55.9 °F 54.8 °F 29.69 in East 3.9 mph 5.8 mph 96 % 0.02 in
07:15 55.9 °F 54.8 °F 29.69 in East 3.7 mph 6.9 mph 96 % 0.02 in
07:20 55.9 °F 54.8 °F 29.69 in East 3.3 mph 3.5 mph 96 % 0.01 in
07:25 55.9 °F 54.8 °F 29.69 in ENE 3.9 mph 5.8 mph 96 % 0.01 in
07:30 56.0 °F 54.9 °F 29.68 in East 4.0 mph 8.1 mph 96 % 0.01 in
07:35 56.0 °F 54.9 °F 29.68 in East 3.3 mph 5.0 mph 96 % 0.02 in
07:40 56.0 °F 54.9 °F 29.68 in East 4.2 mph 5.8 mph 96 % 0.02 in
07:41 56.0 °F 54.9 °F 29.68 in East 4.1 mph 5.8 mph 96 % 0.02 in
07:46 56.1 °F 55.0 °F 29.67 in East 4.0 mph 5.8 mph 96 % 0.03 in
07:51 56.1 °F 55.3 °F 29.68 in East 3.4 mph 5.0 mph 97 % 0.03 in
07:56 56.2 °F 55.4 °F 29.68 in East 3.2 mph 4.6 mph 97 % 0.03 in
08:01 56.2 °F 55.4 °F 29.68 in East 3.8 mph 4.6 mph 97 % 0.04 in
08:06 56.1 °F 55.3 °F 29.68 in East 4.0 mph 5.8 mph 97 % 0.03 in
08:12 56.2 °F 55.4 °F 29.68 in East 3.7 mph 4.6 mph 97 % 0.03 in
08:17 56.2 °F 55.4 °F 29.67 in East 2.8 mph 5.0 mph 97 % 0.04 in
08:22 56.2 °F 55.4 °F 29.67 in ENE 2.9 mph 3.5 mph 97 % 0.04 in
08:27 56.2 °F 55.4 °F 29.67 in ENE 2.5 mph 4.0 mph 97 % 0.05 in
08:32 56.2 °F 55.4 °F 29.66 in East 3.2 mph 5.0 mph 97 % 0.04 in
08:37 56.3 °F 55.5 °F 29.65 in ENE 4.1 mph 7.0 mph 97 % 0.04 in
08:42 56.3 °F 55.5 °F 29.65 in ENE 3.9 mph 4.6 mph 97 % 0.05 in
08:47 56.4 °F 55.6 °F 29.66 in East 3.6 mph 5.8 mph 97 % 0.04 in
08:52 56.4 °F 55.6 °F 29.65 in East 5.0 mph 6.9 mph 97 % 0.04 in
08:57 56.3 °F 55.5 °F 29.65 in East 4.2 mph 5.8 mph 97 % 0.04 in
09:02 56.2 °F 55.4 °F 29.65 in East 5.1 mph 6.9 mph 97 % 0.03 in
09:07 56.2 °F 55.4 °F 29.65 in ENE 4.1 mph 5.8 mph 97 % 0.03 in
09:12 56.2 °F 55.4 °F 29.66 in East 4.6 mph 5.8 mph 97 % 0.03 in
09:17 56.1 °F 55.3 °F 29.66 in East 4.5 mph 6.0 mph 97 % 0.02 in
09:22 56.1 °F 55.3 °F 29.65 in East 5.2 mph 6.0 mph 97 % 0.03 in
09:27 56.1 °F 55.3 °F 29.65 in East 5.0 mph 8.1 mph 97 % 0.03 in
09:32 56.1 °F 55.3 °F 29.65 in ENE 3.5 mph 4.6 mph 97 % 0.03 in
09:37 56.0 °F 55.2 °F 29.65 in East 4.3 mph 6.0 mph 97 % 0.03 in
09:42 56.0 °F 55.2 °F 29.64 in ENE 4.4 mph 5.8 mph 97 % 0.02 in
09:47 56.1 °F 55.3 °F 29.64 in East 3.9 mph 5.8 mph 97 % 0.02 in
09:52 56.1 °F 55.3 °F 29.63 in ENE 4.2 mph 5.8 mph 97 % 0.02 in
09:57 56.1 °F 55.3 °F 29.64 in East 3.7 mph 5.0 mph 97 % 0.02 in
10:02 56.2 °F 55.4 °F 29.63 in East 4.6 mph 6.9 mph 97 % 0.02 in
10:07 56.3 °F 55.5 °F 29.63 in East 3.9 mph 5.8 mph 97 % 0.02 in
10:13 56.3 °F 55.5 °F 29.62 in East 5.0 mph 6.0 mph 97 % 0.02 in
10:18 56.3 °F 55.5 °F 29.62 in East 5.1 mph 6.0 mph 97 % 0.02 in
10:23 56.3 °F 55.5 °F 29.62 in East 4.5 mph 6.9 mph 97 % 0.01 in
10:28 56.3 °F 55.5 °F 29.62 in East 5.2 mph 6.9 mph 97 % 0.00 in
10:33 56.3 °F 55.5 °F 29.62 in East 4.8 mph 6.0 mph 97 % 0.01 in
10:38 56.3 °F 55.5 °F 29.63 in East 4.9 mph 6.0 mph 97 % 0.03 in
10:43 56.3 °F 55.5 °F 29.62 in East 3.9 mph 5.0 mph 97 % 0.03 in
10:48 56.2 °F 55.4 °F 29.63 in East 4.0 mph 5.0 mph 97 % 0.03 in
10:53 56.3 °F 55.5 °F 29.63 in East 3.9 mph 5.0 mph 97 % 0.03 in
10:58 56.4 °F 55.8 °F 29.63 in East 3.9 mph 4.6 mph 98 % 0.05 in
11:03 56.6 °F 56.0 °F 29.62 in East 4.2 mph 6.0 mph 98 % 0.06 in
11:08 56.6 °F 56.0 °F 29.63 in East 3.9 mph 4.6 mph 98 % 0.06 in
11:13 56.6 °F 56.0 °F 29.61 in ENE 4.5 mph 5.0 mph 98 % 0.06 in
11:18 56.6 °F 56.0 °F 29.61 in ENE 2.6 mph 5.8 mph 98 % 0.06 in
11:23 56.7 °F 55.9 °F 29.62 in East 3.4 mph 5.8 mph 97 % 0.06 in
11:29 56.9 °F 56.1 °F 29.61 in East 3.3 mph 5.0 mph 97 % 0.06 in
11:34 56.8 °F 56.0 °F 29.61 in East 2.7 mph 4.6 mph 97 % 0.05 in
11:39 56.9 °F 56.1 °F 29.61 in East 2.5 mph 4.6 mph 97 % 0.03 in
11:44 57.0 °F 56.2 °F 29.61 in East 2.0 mph 3.5 mph 97 % 0.04 in
11:49 57.0 °F 56.4 °F 29.61 in East 2.2 mph 3.5 mph 98 % 0.04 in
11:54 57.1 °F 56.5 °F 29.61 in East 2.1 mph 3.5 mph 98 % 0.04 in
11:59 57.1 °F 56.5 °F 29.61 in East 2.2 mph 3.5 mph 98 % 0.02 in
12:04 57.3 °F 56.7 °F 29.60 in East 2.4 mph 3.5 mph 98 % 0.01 in
12:09 57.4 °F 56.8 °F 29.60 in East 2.4 mph 3.5 mph 98 % 0.01 in
12:14 57.3 °F 56.7 °F 29.61 in East 2.1 mph 3.5 mph 98 % 0.01 in
12:19 57.2 °F 56.6 °F 29.60 in East 2.6 mph 4.6 mph 98 % 0.01 in
12:24 57.1 °F 56.5 °F 29.60 in East 2.4 mph 3.5 mph 98 % 0.02 in
12:29 57.0 °F 56.4 °F 29.60 in East 2.2 mph 3.5 mph 98 % 0.02 in
12:34 56.9 °F 56.1 °F 29.59 in East 2.5 mph 3.5 mph 97 % 0.02 in
12:39 56.8 °F 56.0 °F 29.59 in East 2.6 mph 4.6 mph 97 % 0.02 in
12:44 56.8 °F 56.0 °F 29.59 in ENE 3.2 mph 4.6 mph 97 % 0.01 in
12:49 56.7 °F 55.9 °F 29.59 in ENE 3.4 mph 6.9 mph 97 % 0.01 in
12:54 56.7 °F 55.9 °F 29.59 in ENE 2.8 mph 3.5 mph 97 % 0.01 in
12:59 56.8 °F 56.0 °F 29.59 in ENE 2.4 mph 3.5 mph 97 % 0.02 in
13:04 56.9 °F 56.1 °F 29.59 in ENE 2.8 mph 3.5 mph 97 % 0.02 in
13:09 56.8 °F 56.0 °F 29.58 in ENE 3.5 mph 4.6 mph 97 % 0.02 in
13:14 56.7 °F 55.9 °F 29.58 in ENE 3.0 mph 3.5 mph 97 % 0.02 in
13:19 56.7 °F 55.9 °F 29.58 in ENE 2.9 mph 3.5 mph 97 % 0.02 in
13:24 56.6 °F 55.8 °F 29.58 in ENE 2.6 mph 3.5 mph 97 % 0.01 in
13:29 56.6 °F 55.8 °F 29.58 in ENE 2.1 mph 3.5 mph 97 % 0.01 in
13:35 56.5 °F 55.7 °F 29.58 in ENE 3.7 mph 5.8 mph 97 % 0.01 in
13:40 56.5 °F 55.7 °F 29.58 in ENE 3.8 mph 6.9 mph 97 % 0.01 in
13:45 56.4 °F 55.6 °F 29.58 in ENE 4.1 mph 6.9 mph 97 % 0.01 in
13:50 56.4 °F 55.6 °F 29.58 in ENE 3.4 mph 6.9 mph 97 % 0.01 in
13:55 56.4 °F 55.6 °F 29.57 in ENE 4.0 mph 8.1 mph 97 % 0.00 in
14:00 56.5 °F 55.9 °F 29.58 in ENE 4.7 mph 8.1 mph 98 % 0.00 in
14:05 56.5 °F 55.9 °F 29.57 in East 4.5 mph 8.1 mph 98 % 0.00 in
14:10 56.4 °F 55.6 °F 29.57 in ENE 3.5 mph 5.8 mph 97 % 0.00 in
14:15 56.4 °F 55.6 °F 29.57 in ENE 3.2 mph 4.0 mph 97 % 0.00 in
14:20 56.5 °F 55.9 °F 29.57 in ENE 3.5 mph 4.6 mph 98 % 0.00 in
14:25 56.6 °F 56.0 °F 29.56 in ENE 3.9 mph 4.6 mph 98 % 0.00 in
14:30 56.6 °F 56.0 °F 29.56 in ENE 3.5 mph 4.6 mph 98 % 0.00 in
14:35 56.6 °F 56.0 °F 29.56 in ENE 4.3 mph 7.0 mph 98 % 0.00 in
14:40 56.7 °F 56.1 °F 29.56 in ENE 3.3 mph 5.8 mph 98 % 0.00 in
14:45 56.7 °F 56.1 °F 29.56 in ENE 3.4 mph 5.8 mph 98 % 0.00 in
14:51 56.7 °F 55.9 °F 29.56 in East 3.4 mph 6.9 mph 97 % 0.01 in
14:56 56.9 °F 56.3 °F 29.56 in ENE 3.0 mph 5.0 mph 98 % 0.00 in
15:01 56.9 °F 56.3 °F 29.56 in ENE 4.0 mph 4.0 mph 98 % 0.01 in
15:06 56.9 °F 56.1 °F 29.56 in ENE 3.0 mph 7.0 mph 97 % 0.00 in
15:11 56.8 °F 56.0 °F 29.55 in ENE 3.0 mph 8.0 mph 97 % 0.00 in
15:16 56.8 °F 56.0 °F 29.55 in ENE 3.0 mph 5.0 mph 97 % 0.00 in
15:21 56.7 °F 55.9 °F 29.55 in ENE 2.0 mph 5.0 mph 97 % 0.00 in
15:26 56.8 °F 56.0 °F 29.55 in ENE 2.0 mph 5.0 mph 97 % 0.00 in
15:31 56.8 °F 56.0 °F 29.55 in East 2.0 mph 4.6 mph 97 % 0.01 in
15:35 56.9 °F 56.3 °F 29.54 in East 2.9 mph 6.0 mph 98 % 0.01 in
15:41 56.9 °F 56.3 °F 29.54 in ENE 3.8 mph 4.0 mph 98 % 0.01 in
15:46 57.1 °F 56.5 °F 29.53 in ENE 3.0 mph 5.0 mph 98 % 0.00 in
15:51 57.0 °F 56.4 °F 29.54 in ENE 3.0 mph 6.0 mph 98 % 0.00 in
15:56 57.1 °F 56.5 °F 29.54 in East 3.0 mph 6.0 mph 98 % 0.00 in
16:01 57.0 °F 56.4 °F 29.54 in ENE 2.6 mph 3.5 mph 98 % 0.00 in
16:06 56.9 °F 56.1 °F 29.53 in ENE 2.8 mph 4.6 mph 97 % 0.00 in
16:11 56.8 °F 56.0 °F 29.54 in East 2.7 mph 5.8 mph 97 % 0.00 in
16:16 56.9 °F 56.3 °F 29.53 in ENE 2.6 mph 4.6 mph 98 % 0.00 in
16:21 56.9 °F 56.3 °F 29.54 in ENE 2.2 mph 3.5 mph 98 % 0.00 in
16:26 56.9 °F 56.3 °F 29.54 in ENE 2.6 mph 3.5 mph 98 % 0.00 in
16:31 56.7 °F 55.9 °F 29.54 in ENE 3.1 mph 6.9 mph 97 % 0.00 in
16:36 56.6 °F 56.0 °F 29.53 in ENE 2.8 mph 4.6 mph 98 % 0.00 in
16:41 56.6 °F 56.0 °F 29.53 in ENE 2.7 mph 4.6 mph 98 % 0.00 in
16:46 56.5 °F 55.9 °F 29.53 in ENE 3.1 mph 4.6 mph 98 % 0.00 in
16:51 56.4 °F 55.8 °F 29.53 in East 3.0 mph 5.0 mph 98 % 0.00 in
16:56 56.4 °F 55.8 °F 29.53 in ENE 2.7 mph 3.5 mph 98 % 0.00 in
17:01 56.4 °F 55.6 °F 29.52 in East 3.7 mph 6.0 mph 97 % 0.00 in
17:06 56.3 °F 55.5 °F 29.50 in ENE 4.7 mph 8.1 mph 97 % 0.00 in
17:11 56.2 °F 55.4 °F 29.49 in ENE 4.8 mph 9.2 mph 97 % 0.00 in
17:16 56.2 °F 55.4 °F 29.49 in ENE 4.6 mph 10.4 mph 97 % 0.00 in
17:21 56.2 °F 55.4 °F 29.51 in East 3.0 mph 3.5 mph 97 % 0.00 in
17:26 56.3 °F 55.7 °F 29.52 in East 3.1 mph 5.0 mph 98 % 0.00 in
17:31 56.5 °F 55.9 °F 29.52 in East 3.4 mph 5.0 mph 98 % 0.00 in
17:36 56.6 °F 56.0 °F 29.53 in East 3.3 mph 4.6 mph 98 % 0.00 in
17:41 56.7 °F 56.1 °F 29.53 in East 2.8 mph 5.8 mph 98 % 0.00 in
17:46 56.7 °F 56.1 °F 29.54 in East 1.9 mph 3.5 mph 98 % 0.00 in
17:51 56.9 °F 56.3 °F 29.53 in East 2.2 mph 3.5 mph 98 % 0.00 in
17:56 57.0 °F 56.4 °F 29.53 in East 2.0 mph 3.5 mph 98 % 0.00 in
18:01 57.1 °F 56.5 °F 29.54 in East 2.0 mph 3.5 mph 98 % 0.00 in
18:07 57.1 °F 56.5 °F 29.52 in ENE 2.0 mph 4.6 mph 98 % 0.00 in
18:12 57.0 °F 56.4 °F 29.52 in ENE 1.9 mph 8.1 mph 98 % 0.00 in
18:17 57.0 °F 56.4 °F 29.52 in ENE 3.1 mph 4.6 mph 98 % 0.00 in
18:22 56.9 °F 56.3 °F 29.53 in ENE 2.1 mph 4.0 mph 98 % 0.00 in
18:27 56.8 °F 56.2 °F 29.52 in ENE 2.5 mph 3.5 mph 98 % 0.00 in
18:32 56.8 °F 56.2 °F 29.51 in ENE 2.7 mph 4.0 mph 98 % 0.00 in
18:37 56.7 °F 56.1 °F 29.51 in ENE 4.4 mph 6.9 mph 98 % 0.00 in
18:42 56.6 °F 56.0 °F 29.51 in East 2.9 mph 4.6 mph 98 % 0.00 in
18:47 56.5 °F 55.9 °F 29.50 in ENE 4.9 mph 8.1 mph 98 % 0.00 in
18:52 56.4 °F 55.8 °F 29.51 in ENE 3.0 mph 4.0 mph 98 % 0.00 in
18:57 56.4 °F 55.8 °F 29.51 in ENE 3.1 mph 4.6 mph 98 % 0.00 in
19:02 56.3 °F 55.7 °F 29.50 in NE 4.5 mph 8.0 mph 98 % 0.00 in
19:07 56.3 °F 55.7 °F 29.51 in NE 4.8 mph 9.2 mph 98 % 0.00 in
19:12 56.3 °F 55.7 °F 29.51 in ENE 2.7 mph 9.2 mph 98 % 0.00 in
19:17 56.3 °F 55.7 °F 29.51 in ENE 4.6 mph 7.0 mph 98 % 0.00 in
19:22 56.3 °F 55.7 °F 29.52 in ENE 2.4 mph 4.6 mph 98 % 0.00 in
19:27 56.3 °F 55.7 °F 29.53 in East 3.5 mph 5.0 mph 98 % 0.00 in
19:32 56.3 °F 55.7 °F 29.52 in ENE 3.1 mph 4.0 mph 98 % 0.00 in
19:37 56.2 °F 55.6 °F 29.52 in ENE 2.9 mph 5.8 mph 98 % 0.00 in
19:43 56.2 °F 55.6 °F 29.51 in ENE 3.6 mph 6.9 mph 98 % 0.00 in
19:48 56.1 °F 55.5 °F 29.51 in ENE 3.1 mph 4.6 mph 98 % 0.00 in
19:53 56.1 °F 55.5 °F 29.52 in East 2.5 mph 4.6 mph 98 % 0.00 in
19:58 56.1 °F 55.5 °F 29.52 in East 3.4 mph 5.8 mph 98 % 0.00 in
20:03 56.1 °F 55.5 °F 29.51 in East 3.7 mph 4.6 mph 98 % 0.00 in
20:08 56.1 °F 55.5 °F 29.52 in ENE 2.9 mph 8.1 mph 98 % 0.00 in
20:13 56.1 °F 55.5 °F 29.52 in ENE 3.1 mph 4.6 mph 98 % 0.00 in
20:18 56.1 °F 55.5 °F 29.52 in ENE 2.5 mph 4.0 mph 98 % 0.00 in
20:23 56.1 °F 55.5 °F 29.51 in East 3.2 mph 6.9 mph 98 % 0.00 in
20:28 56.0 °F 55.4 °F 29.50 in ENE 3.4 mph 5.0 mph 98 % 0.00 in
20:33 56.0 °F 55.4 °F 29.50 in ENE 3.8 mph 4.6 mph 98 % 0.00 in
20:38 56.0 °F 55.4 °F 29.49 in East 3.4 mph 6.0 mph 98 % 0.00 in
20:43 56.0 °F 55.4 °F 29.49 in ENE 3.9 mph 4.6 mph 98 % 0.00 in
20:48 55.9 °F 55.3 °F 29.49 in ENE 3.8 mph 9.2 mph 98 % 0.00 in
20:53 56.0 °F 55.4 °F 29.49 in ENE 3.8 mph 7.0 mph 98 % 0.00 in
20:59 55.9 °F 55.3 °F 29.48 in ENE 4.4 mph 5.8 mph 98 % 0.01 in
21:04 55.9 °F 55.3 °F 29.48 in ENE 4.6 mph 4.6 mph 98 % 0.01 in
21:09 55.9 °F 55.3 °F 29.49 in ENE 4.7 mph 9.2 mph 98 % 0.01 in
21:14 55.9 °F 55.3 °F 29.49 in ENE 6.0 mph 12.7 mph 98 % 0.01 in
21:19 56.0 °F 55.4 °F 29.48 in ENE 5.3 mph 12.7 mph 98 % 0.01 in
21:24 56.0 °F 55.4 °F 29.49 in ENE 4.1 mph 8.1 mph 98 % 0.01 in
21:29 56.1 °F 55.5 °F 29.49 in East 6.5 mph 9.2 mph 98 % 0.01 in
21:34 56.2 °F 55.6 °F 29.50 in East 4.4 mph 6.0 mph 98 % 0.02 in
21:39 56.2 °F 55.6 °F 29.50 in East 4.4 mph 6.0 mph 98 % 0.02 in
21:44 56.1 °F 55.5 °F 29.49 in East 3.3 mph 4.6 mph 98 % 0.02 in
21:49 56.1 °F 55.5 °F 29.49 in ENE 3.3 mph 4.6 mph 98 % 0.02 in
21:54 56.1 °F 55.5 °F 29.49 in ENE 2.6 mph 3.5 mph 98 % 0.02 in
21:59 56.0 °F 55.4 °F 29.49 in East 1.9 mph 4.6 mph 98 % 0.01 in
22:04 56.1 °F 55.5 °F 29.49 in ENE 3.4 mph 4.0 mph 98 % 0.01 in
22:09 56.0 °F 55.4 °F 29.49 in ENE 2.6 mph 5.8 mph 98 % 0.01 in
22:14 56.0 °F 55.4 °F 29.48 in ENE 2.6 mph 3.5 mph 98 % 0.02 in
22:19 56.0 °F 55.4 °F 29.48 in ENE 2.8 mph 4.0 mph 98 % 0.02 in
22:24 56.0 °F 55.4 °F 29.48 in ENE 3.4 mph 4.0 mph 98 % 0.02 in
22:29 56.0 °F 55.4 °F 29.48 in ENE 2.7 mph 3.5 mph 98 % 0.02 in
22:34 56.0 °F 55.4 °F 29.48 in East 3.8 mph 5.0 mph 98 % 0.03 in
22:39 56.0 °F 55.4 °F 29.48 in East 5.5 mph 6.9 mph 98 % 0.04 in
22:44 55.9 °F 55.3 °F 29.47 in ENE 5.6 mph 9.2 mph 98 % 0.07 in
22:49 55.9 °F 55.3 °F 29.47 in East 3.2 mph 4.6 mph 98 % 0.08 in
22:54 55.9 °F 55.3 °F 29.46 in East 5.9 mph 8.1 mph 98 % 0.09 in
23:00 55.8 °F 55.2 °F 29.46 in East 3.8 mph 7.0 mph 98 % 0.09 in
23:05 55.8 °F 55.2 °F 29.47 in East 3.4 mph 4.6 mph 98 % 0.10 in
23:10 55.8 °F 55.2 °F 29.47 in East 2.9 mph 3.5 mph 98 % 0.10 in
23:15 55.8 °F 55.2 °F 29.46 in ENE 5.3 mph 8.1 mph 98 % 0.09 in
23:20 55.7 °F 55.1 °F 29.47 in ENE 2.7 mph 4.6 mph 98 % 0.09 in
23:25 55.7 °F 55.1 °F 29.47 in East 4.5 mph 5.8 mph 98 % 0.09 in
23:30 55.7 °F 55.1 °F 29.47 in East 3.9 mph 5.0 mph 98 % 0.09 in
23:35 55.8 °F 55.2 °F 29.47 in East 2.2 mph 4.6 mph 98 % 0.07 in
23:40 55.8 °F 55.2 °F 29.48 in East 3.8 mph 5.0 mph 98 % 0.06 in
23:45 55.8 °F 55.2 °F 29.48 in East 2.8 mph 4.6 mph 98 % 0.08 in
23:50 55.8 °F 55.2 °F 29.47 in ENE 2.5 mph 4.0 mph 98 % 0.12 in
23:55 55.8 °F 55.2 °F 29.48 in East 1.5 mph 3.5 mph 98 % 0.14 in
Crab Meadow Weather
Compliments of Weather Underground - 3 mb

Script developed by  Jim McMurry - jmcmurry@mwt.net Adapted for the template by  Wim van der Kuil - Leuven-Template.eu

Astronomy: One year on Pluto is equal to 248 Earth years.